Terminal Aerodrome Forecast
Issued by NWS

Home | Current Version | Previous Version | Text Only | Print | Product List | Glossary On
Versions: 1 2 3 4 5 6 7 8 9 10 11 12 13 14 15 16 17 18 19 20 21 22 23 24 25 26 27 28 29
000
FTUS43 KGRB 250520
TAFRHI
TAF
KRHI 250520Z 2506/2606 14010KT P6SM SCT080 BKN120 WS011/18040KT
     FM251200 15009KT P6SM BKN120
     FM251600 17009KT P6SM BKN080
     FM252200 14007KT P6SM -SHRA BKN035 OVC070
     FM260200 08007KT 6SM -SHRA BR SCT015 OVC035
      TEMPO 2603/2606 4SM SHRA BR OVC015=

USA.gov is the U.S. government's official web portal to all federal, state and local government web resources and services.